sensor_id;sensor_type;location;lat;lon;timestamp;pressure;altitude;pressure_sealevel;temperature;humidity
61697;BME280;47610;52.252;20.922;2023-04-08T00:01:59;100805.63;;;5.08;100.00
61697;BME280;47610;52.252;20.922;2023-04-08T00:07:03;100807.20;;;5.02;100.00
61697;BME280;47610;52.252;20.922;2023-04-08T00:12:06;100811.20;;;4.99;100.00
61697;BME280;47610;52.252;20.922;2023-04-08T00:17:09;100815.00;;;4.96;100.00
61697;BME280;47610;52.252;20.922;2023-04-08T00:22:13;100817.84;;;4.94;100.00
61697;BME280;47610;52.252;20.922;2023-04-08T00:27:16;100822.38;;;4.97;100.00
61697;BME280;47610;52.252;20.922;2023-04-08T00:32:19;100823.98;;;5.00;100.00
61697;BME280;47610;52.252;20.922;2023-04-08T00:37:22;100818.48;;;5.01;100.00
61697;BME280;47610;52.252;20.922;2023-04-08T00:42:26;100815.45;;;5.00;100.00
61697;BME280;47610;52.252;20.922;2023-04-08T00:47:29;100823.02;;;4.98;100.00
61697;BME280;47610;52.252;20.922;2023-04-08T00:52:32;100827.82;;;4.98;100.00
61697;BME280;47610;52.252;20.922;2023-04-08T00:57:36;100825.55;;;4.99;100.00
61697;BME280;47610;52.252;20.922;2023-04-08T01:02:46;100828.21;;;5.00;100.00
61697;BME280;47610;52.252;20.922;2023-04-08T01:07:53;100838.66;;;4.98;100.00
61697;BME280;47610;52.252;20.922;2023-04-08T01:12:58;100844.02;;;4.92;100.00
61697;BME280;47610;52.252;20.922;2023-04-08T01:18:05;100842.81;;;4.87;100.00
61697;BME280;47610;52.252;20.922;2023-04-08T01:23:14;100847.33;;;4.84;100.00
61697;BME280;47610;52.252;20.922;2023-04-08T01:28:21;100848.23;;;4.80;100.00
61697;BME280;47610;52.252;20.922;2023-04-08T01:33:25;100851.02;;;4.73;100.00
61697;BME280;47610;52.252;20.922;2023-04-08T01:38:29;100853.41;;;4.64;100.00
61697;BME280;47610;52.252;20.922;2023-04-08T01:43:34;100856.08;;;4.52;100.00
61697;BME280;47610;52.252;20.922;2023-04-08T01:48:37;100852.53;;;4.36;100.00
61697;BME280;47610;52.252;20.922;2023-04-08T01:53:42;100851.28;;;4.21;100.00
61697;BME280;47610;52.252;20.922;2023-04-08T01:58:50;100850.37;;;4.08;100.00
61697;BME280;47610;52.252;20.922;2023-04-08T02:03:54;100853.68;;;3.97;100.00
61697;BME280;47610;52.252;20.922;2023-04-08T02:08:59;100870.92;;;3.87;100.00
61697;BME280;47610;52.252;20.922;2023-04-08T02:14:03;100873.76;;;3.77;100.00
61697;BME280;47610;52.252;20.922;2023-04-08T02:19:10;100877.63;;;3.68;100.00
61697;BME280;47610;52.252;20.922;2023-04-08T02:24:17;100880.36;;;3.60;100.00
61697;BME280;47610;52.252;20.922;2023-04-08T02:29:22;100876.58;;;3.52;100.00
61697;BME280;47610;52.252;20.922;2023-04-08T02:34:26;100881.67;;;3.46;100.00
61697;BME280;47610;52.252;20.922;2023-04-08T02:39:32;100883.63;;;3.40;100.00
61697;BME280;47610;52.252;20.922;2023-04-08T02:44:35;100886.41;;;3.36;100.00
61697;BME280;47610;52.252;20.922;2023-04-08T02:49:39;100892.78;;;3.31;100.00
61697;BME280;47610;52.252;20.922;2023-04-08T02:54:42;100899.63;;;3.26;100.00
61697;BME280;47610;52.252;20.922;2023-04-08T02:59:45;100909.11;;;3.21;100.00
61697;BME280;47610;52.252;20.922;2023-04-08T03:04:48;100916.36;;;3.14;100.00
61697;BME280;47610;52.252;20.922;2023-04-08T03:09:52;100926.66;;;3.09;100.00
61697;BME280;47610;52.252;20.922;2023-04-08T03:14:55;100929.91;;;3.04;100.00
61697;BME280;47610;52.252;20.922;2023-04-08T03:19:58;100931.88;;;3.00;100.00
61697;BME280;47610;52.252;20.922;2023-04-08T03:25:02;100933.54;;;2.96;100.00
61697;BME280;47610;52.252;20.922;2023-04-08T03:30:07;100935.03;;;2.92;100.00
61697;BME280;47610;52.252;20.922;2023-04-08T03:35:11;100940.48;;;2.88;100.00
61697;BME280;47610;52.252;20.922;2023-04-08T03:40:14;100949.70;;;2.85;100.00
61697;BME280;47610;52.252;20.922;2023-04-08T03:45:18;100949.02;;;2.80;100.00
61697;BME280;47610;52.252;20.922;2023-04-08T03:50:21;100948.70;;;2.74;100.00
61697;BME280;47610;52.252;20.922;2023-04-08T03:55:24;100954.55;;;2.71;100.00
61697;BME280;47610;52.252;20.922;2023-04-08T04:00:28;100950.70;;;2.66;100.00
61697;BME280;47610;52.252;20.922;2023-04-08T04:05:31;100957.11;;;2.67;100.00
61697;BME280;47610;52.252;20.922;2023-04-08T04:10:34;100962.25;;;2.68;100.00
61697;BME280;47610;52.252;20.922;2023-04-08T04:15:39;100965.05;;;2.70;100.00
61697;BME280;47610;52.252;20.922;2023-04-08T04:20:43;100965.04;;;2.73;100.00
61697;BME280;47610;52.252;20.922;2023-04-08T04:25:46;100968.18;;;2.76;100.00
61697;BME280;47610;52.252;20.922;2023-04-08T04:30:49;100974.58;;;2.78;100.00
61697;BME280;47610;52.252;20.922;2023-04-08T04:35:53;100982.94;;;2.82;100.00
61697;BME280;47610;52.252;20.922;2023-04-08T04:40:56;100991.19;;;2.90;100.00
61697;BME280;47610;52.252;20.922;2023-04-08T04:45:59;100996.70;;;3.00;100.00
61697;BME280;47610;52.252;20.922;2023-04-08T04:51:02;100999.70;;;3.12;100.00
61697;BME280;47610;52.252;20.922;2023-04-08T04:56:06;101007.05;;;3.29;100.00
61697;BME280;47610;52.252;20.922;2023-04-08T05:01:09;101009.02;;;3.88;100.00
61697;BME280;47610;52.252;20.922;2023-04-08T05:06:12;101013.68;;;7.04;100.00
61697;BME280;47610;52.252;20.922;2023-04-08T05:11:16;101022.13;;;10.11;100.00
61697;BME280;47610;52.252;20.922;2023-04-08T05:16:19;101025.70;;;12.47;100.00
61697;BME280;47610;52.252;20.922;2023-04-08T05:21:22;101035.67;;;14.27;100.00
61697;BME280;47610;52.252;20.922;2023-04-08T05:26:25;101036.21;;;15.41;100.00
61697;BME280;47610;52.252;20.922;2023-04-08T05:31:29;101039.00;;;16.39;100.00
61697;BME280;47610;52.252;20.922;2023-04-08T05:36:32;101044.86;;;16.71;100.00
61697;BME280;47610;52.252;20.922;2023-04-08T05:41:35;101043.09;;;15.92;99.86
61697;BME280;47610;52.252;20.922;2023-04-08T05:46:38;101043.81;;;15.43;98.35
61697;BME280;47610;52.252;20.922;2023-04-08T05:51:42;101047.39;;;16.30;92.84
61697;BME280;47610;52.252;20.922;2023-04-08T05:56:45;101056.84;;;17.78;82.23
61697;BME280;47610;52.252;20.922;2023-04-08T06:01:48;101062.75;;;17.80;76.06
61697;BME280;47610;52.252;20.922;2023-04-08T06:06:51;101067.47;;;17.33;74.75
61697;BME280;47610;52.252;20.922;2023-04-08T06:11:54;101069.31;;;18.12;70.22
61697;BME280;47610;52.252;20.922;2023-04-08T06:16:58;101073.61;;;19.42;64.46
61697;BME280;47610;52.252;20.922;2023-04-08T06:22:01;101076.98;;;19.66;60.05
61697;BME280;47610;52.252;20.922;2023-04-08T06:27:04;101077.10;;;20.49;54.09
61697;BME280;47610;52.252;20.922;2023-04-08T06:32:08;101076.92;;;19.86;53.78
61697;BME280;47610;52.252;20.922;2023-04-08T06:37:11;101075.73;;;18.91;55.06
61697;BME280;47610;52.252;20.922;2023-04-08T06:42:14;101076.20;;;19.81;55.20
61697;BME280;47610;52.252;20.922;2023-04-08T06:47:17;101090.02;;;23.40;48.33
61697;BME280;47610;52.252;20.922;2023-04-08T06:52:20;101095.67;;;26.23;39.97
61697;BME280;47610;52.252;20.922;2023-04-08T06:57:23;101096.13;;;28.18;33.96
61697;BME280;47610;52.252;20.922;2023-04-08T07:02:27;101099.69;;;29.59;30.58
61697;BME280;47610;52.252;20.922;2023-04-08T07:07:30;101100.13;;;30.20;27.90
61697;BME280;47610;52.252;20.922;2023-04-08T07:12:33;101100.63;;;29.26;26.07
61697;BME280;47610;52.252;20.922;2023-04-08T07:17:37;101099.96;;;26.08;28.68
61697;BME280;47610;52.252;20.922;2023-04-08T07:22:40;101096.17;;;25.90;29.68
61697;BME280;47610;52.252;20.922;2023-04-08T07:27:43;101105.46;;;28.01;29.05
61697;BME280;47610;52.252;20.922;2023-04-08T07:32:46;101109.37;;;31.00;25.63
61697;BME280;47610;52.252;20.922;2023-04-08T07:37:50;101112.50;;;33.80;23.89
61697;BME280;47610;52.252;20.922;2023-04-08T07:42:53;101117.60;;;35.31;21.17
61697;BME280;47610;52.252;20.922;2023-04-08T07:47:56;101111.30;;;35.27;20.01
61697;BME280;47610;52.252;20.922;2023-04-08T07:53:00;101116.39;;;36.69;19.08
61697;BME280;47610;52.252;20.922;2023-04-08T07:58:03;101120.65;;;38.90;17.62
61697;BME280;47610;52.252;20.922;2023-04-08T08:03:06;101121.31;;;40.13;16.43
61697;BME280;47610;52.252;20.922;2023-04-08T08:08:10;101115.33;;;40.79;15.02
61697;BME280;47610;52.252;20.922;2023-04-08T08:13:13;101116.76;;;42.02;14.28
61697;BME280;47610;52.252;20.922;2023-04-08T08:18:16;101112.84;;;43.34;13.11
61697;BME280;47610;52.252;20.922;2023-04-08T08:23:19;101111.59;;;43.84;12.53
61697;BME280;47610;52.252;20.922;2023-04-08T08:28:22;101107.98;;;44.37;11.94
61697;BME280;47610;52.252;20.922;2023-04-08T08:33:26;101106.28;;;44.75;11.30
61697;BME280;47610;52.252;20.922;2023-04-08T08:38:29;101103.54;;;45.64;10.89
61697;BME280;47610;52.252;20.922;2023-04-08T08:43:32;101106.36;;;45.92;10.30
61697;BME280;47610;52.252;20.922;2023-04-08T08:48:36;101102.65;;;46.82;10.88
61697;BME280;47610;52.252;20.922;2023-04-08T08:53:40;101099.66;;;48.57;10.08
61697;BME280;47610;52.252;20.922;2023-04-08T08:58:43;101091.55;;;48.88;9.28
61697;BME280;47610;52.252;20.922;2023-04-08T09:03:47;101094.45;;;49.00;9.06
61697;BME280;47610;52.252;20.922;2023-04-08T09:09:08;101095.08;;;49.04;9.04
61697;BME280;47610;52.252;20.922;2023-04-08T09:14:23;101089.75;;;49.24;8.88
61697;BME280;47610;52.252;20.922;2023-04-08T09:19:26;101093.89;;;49.41;8.98
61697;BME280;47610;52.252;20.922;2023-04-08T09:24:30;101095.10;;;49.77;8.56
61697;BME280;47610;52.252;20.922;2023-04-08T09:29:34;101090.08;;;49.21;8.32
61697;BME280;47610;52.252;20.922;2023-04-08T09:34:37;101091.80;;;48.16;8.84
61697;BME280;47610;52.252;20.922;2023-04-08T09:39:40;101090.43;;;48.41;8.75
61697;BME280;47610;52.252;20.922;2023-04-08T09:44:46;101091.10;;;48.14;8.68
61697;BME280;47610;52.252;20.922;2023-04-08T09:49:54;101085.07;;;47.55;8.80
61697;BME280;47610;52.252;20.922;2023-04-08T09:55:02;101082.11;;;47.00;9.00
61697;BME280;47610;52.252;20.922;2023-04-08T10:00:10;101076.89;;;47.01;9.03
61697;BME280;47610;52.252;20.922;2023-04-08T10:05:15;101073.95;;;46.90;9.16
61697;BME280;47610;52.252;20.922;2023-04-08T10:10:19;101070.17;;;46.81;9.03
61697;BME280;47610;52.252;20.922;2023-04-08T10:15:29;101071.84;;;46.93;8.86
61697;BME280;47610;52.252;20.922;2023-04-08T10:20:45;101065.78;;;46.18;8.87
61697;BME280;47610;52.252;20.922;2023-04-08T10:25:49;101054.00;;;45.38;9.40
61697;BME280;47610;52.252;20.922;2023-04-08T10:30:52;101047.92;;;44.75;9.36
61697;BME280;47610;52.252;20.922;2023-04-08T10:36:07;101046.52;;;44.04;10.06
61697;BME280;47610;52.252;20.922;2023-04-08T10:41:11;101034.51;;;43.01;10.54
61697;BME280;47610;52.252;20.922;2023-04-08T10:46:14;101038.14;;;39.50;11.18
61697;BME280;47610;52.252;20.922;2023-04-08T10:51:18;101025.70;;;33.68;13.96
61697;BME280;47610;52.252;20.922;2023-04-08T10:56:21;101011.32;;;29.21;17.14
61697;BME280;47610;52.252;20.922;2023-04-08T11:01:25;101001.40;;;26.12;20.14
61697;BME280;47610;52.252;20.922;2023-04-08T11:06:29;100995.48;;;23.69;23.77
61697;BME280;47610;52.252;20.922;2023-04-08T11:11:32;100989.80;;;21.82;26.30
61697;BME280;47610;52.252;20.922;2023-04-08T11:16:37;100984.63;;;20.47;29.90
61697;BME280;47610;52.252;20.922;2023-04-08T11:21:41;100985.54;;;19.32;33.66
61697;BME280;47610;52.252;20.922;2023-04-08T11:26:44;100987.91;;;18.44;36.66
61697;BME280;47610;52.252;20.922;2023-04-08T11:31:47;100984.89;;;17.90;41.28
61697;BME280;47610;52.252;20.922;2023-04-08T11:36:51;100981.11;;;17.53;43.14
61697;BME280;47610;52.252;20.922;2023-04-08T11:41:54;100982.12;;;17.26;43.73
61697;BME280;47610;52.252;20.922;2023-04-08T11:46:58;100977.77;;;17.24;45.07
61697;BME280;47610;52.252;20.922;2023-04-08T11:52:01;100976.71;;;17.17;47.36
61697;BME280;47610;52.252;20.922;2023-04-08T11:57:04;100973.45;;;17.06;50.14
61697;BME280;47610;52.252;20.922;2023-04-08T12:02:07;100967.05;;;16.84;50.87
61697;BME280;47610;52.252;20.922;2023-04-08T12:07:11;100966.89;;;16.54;52.02
61697;BME280;47610;52.252;20.922;2023-04-08T12:12:14;100962.67;;;16.53;54.28
61697;BME280;47610;52.252;20.922;2023-04-08T12:17:17;100964.23;;;16.38;53.10
61697;BME280;47610;52.252;20.922;2023-04-08T12:22:20;100962.52;;;16.14;53.13
61697;BME280;47610;52.252;20.922;2023-04-08T12:27:23;100957.72;;;16.16;53.96
61697;BME280;47610;52.252;20.922;2023-04-08T12:32:27;100953.64;;;16.14;53.81
61697;BME280;47610;52.252;20.922;2023-04-08T12:37:30;100950.82;;;16.08;53.92
61697;BME280;47610;52.252;20.922;2023-04-08T12:42:33;100952.66;;;16.00;53.57
61697;BME280;47610;52.252;20.922;2023-04-08T12:47:36;100938.05;;;15.79;53.44
61697;BME280;47610;52.252;20.922;2023-04-08T12:52:39;100944.17;;;15.61;53.54
61697;BME280;47610;52.252;20.922;2023-04-08T12:57:43;100939.45;;;15.57;52.62
61697;BME280;47610;52.252;20.922;2023-04-08T13:02:46;100937.94;;;15.63;55.11
61697;BME280;47610;52.252;20.922;2023-04-08T13:07:49;100933.27;;;15.88;54.35
61697;BME280;47610;52.252;20.922;2023-04-08T13:12:52;100928.41;;;16.10;55.03
61697;BME280;47610;52.252;20.922;2023-04-08T13:17:55;100928.19;;;16.29;56.72
61697;BME280;47610;52.252;20.922;2023-04-08T13:22:59;100924.20;;;16.36;56.29
61697;BME280;47610;52.252;20.922;2023-04-08T13:28:02;100915.13;;;16.30;54.82
61697;BME280;47610;52.252;20.922;2023-04-08T13:33:05;100912.73;;;16.34;55.88
61697;BME280;47610;52.252;20.922;2023-04-08T13:38:09;100907.61;;;16.72;56.40
61697;BME280;47610;52.252;20.922;2023-04-08T13:43:12;100905.41;;;17.01;55.09
61697;BME280;47610;52.252;20.922;2023-04-08T13:48:15;100902.76;;;17.21;55.10
61697;BME280;47610;52.252;20.922;2023-04-08T13:53:18;100903.98;;;17.17;57.06
61697;BME280;47610;52.252;20.922;2023-04-08T13:58:21;100896.78;;;17.08;57.75
61697;BME280;47610;52.252;20.922;2023-04-08T14:03:25;100902.75;;;16.97;59.57
61697;BME280;47610;52.252;20.922;2023-04-08T14:08:28;100897.42;;;16.87;55.39
61697;BME280;47610;52.252;20.922;2023-04-08T14:13:31;100891.59;;;16.67;56.01
61697;BME280;47610;52.252;20.922;2023-04-08T14:18:34;100888.25;;;16.50;57.61
61697;BME280;47610;52.252;20.922;2023-04-08T14:23:37;100890.45;;;16.37;58.94
61697;BME280;47610;52.252;20.922;2023-04-08T14:28:41;100884.87;;;16.21;59.26
61697;BME280;47610;52.252;20.922;2023-04-08T14:33:44;100886.89;;;15.97;58.05
61697;BME280;47610;52.252;20.922;2023-04-08T14:38:47;100888.96;;;15.88;58.79
61697;BME280;47610;52.252;20.922;2023-04-08T14:43:50;100890.15;;;15.73;59.43
61697;BME280;47610;52.252;20.922;2023-04-08T14:48:53;100891.37;;;15.59;62.46
61697;BME280;47610;52.252;20.922;2023-04-08T14:53:57;100888.19;;;15.38;63.84
61697;BME280;47610;52.252;20.922;2023-04-08T14:59:00;100893.58;;;15.27;64.47
61697;BME280;47610;52.252;20.922;2023-04-08T15:04:03;100894.13;;;15.12;64.64
61697;BME280;47610;52.252;20.922;2023-04-08T15:09:07;100893.45;;;14.98;63.68
61697;BME280;47610;52.252;20.922;2023-04-08T15:14:10;100899.88;;;14.80;63.53
61697;BME280;47610;52.252;20.922;2023-04-08T15:19:13;100903.83;;;14.58;64.47
61697;BME280;47610;52.252;20.922;2023-04-08T15:24:16;100906.06;;;14.40;66.76
61697;BME280;47610;52.252;20.922;2023-04-08T15:29:22;100903.13;;;14.24;68.95
61697;BME280;47610;52.252;20.922;2023-04-08T15:34:25;100906.23;;;14.14;72.03
61697;BME280;47610;52.252;20.922;2023-04-08T15:39:28;100910.00;;;14.06;73.79
61697;BME280;47610;52.252;20.922;2023-04-08T15:44:32;100912.66;;;13.94;75.06
61697;BME280;47610;52.252;20.922;2023-04-08T15:49:35;100912.36;;;13.78;75.59
61697;BME280;47610;52.252;20.922;2023-04-08T15:54:39;100914.36;;;13.66;77.24
61697;BME280;47610;52.252;20.922;2023-04-08T15:59:42;100915.45;;;13.53;77.18
61697;BME280;47610;52.252;20.922;2023-04-08T16:04:45;100916.33;;;13.41;78.19
61697;BME280;47610;52.252;20.922;2023-04-08T16:09:48;100918.73;;;13.34;79.19
61697;BME280;47610;52.252;20.922;2023-04-08T16:14:51;100918.09;;;13.28;79.68
61697;BME280;47610;52.252;20.922;2023-04-08T16:19:55;100921.55;;;13.22;80.26
61697;BME280;47610;52.252;20.922;2023-04-08T16:24:58;100923.27;;;13.18;80.96
61697;BME280;47610;52.252;20.922;2023-04-08T16:30:01;100921.36;;;13.15;82.21
61697;BME280;47610;52.252;20.922;2023-04-08T16:35:05;100919.80;;;13.12;81.65
61697;BME280;47610;52.252;20.922;2023-04-08T16:40:10;100928.00;;;13.05;80.42
61697;BME280;47610;52.252;20.922;2023-04-08T16:45:14;100930.33;;;12.99;81.32
61697;BME280;47610;52.252;20.922;2023-04-08T16:50:17;100930.95;;;12.93;81.68
61697;BME280;47610;52.252;20.922;2023-04-08T16:55:21;100932.21;;;12.84;81.89
61697;BME280;47610;52.252;20.922;2023-04-08T17:00:24;100932.40;;;12.75;82.43
61697;BME280;47610;52.252;20.922;2023-04-08T17:05:27;100937.97;;;12.69;83.17
61697;BME280;47610;52.252;20.922;2023-04-08T17:10:30;100944.11;;;12.63;84.38
61697;BME280;47610;52.252;20.922;2023-04-08T17:15:35;100943.05;;;12.53;85.30
61697;BME280;47610;52.252;20.922;2023-04-08T17:20:38;100950.44;;;12.44;85.66
61697;BME280;47610;52.252;20.922;2023-04-08T17:25:41;100952.20;;;12.34;86.91
61697;BME280;47610;52.252;20.922;2023-04-08T17:30:44;100954.72;;;12.25;84.12
61697;BME280;47610;52.252;20.922;2023-04-08T17:35:47;100959.77;;;12.16;83.31
61697;BME280;47610;52.252;20.922;2023-04-08T17:40:51;100966.50;;;12.09;84.04
61697;BME280;47610;52.252;20.922;2023-04-08T17:45:57;100971.32;;;12.00;85.73
61697;BME280;47610;52.252;20.922;2023-04-08T17:51:01;100971.66;;;11.90;86.94
61697;BME280;47610;52.252;20.922;2023-04-08T17:56:03;100976.76;;;11.83;86.50
61697;BME280;47610;52.252;20.922;2023-04-08T18:01:07;100984.05;;;11.76;87.97
61697;BME280;47610;52.252;20.922;2023-04-08T18:06:10;100993.30;;;11.72;91.59
61697;BME280;47610;52.252;20.922;2023-04-08T18:11:13;101005.89;;;11.64;98.37
61697;BME280;47610;52.252;20.922;2023-04-08T18:16:17;101012.68;;;11.48;100.00
61697;BME280;47610;52.252;20.922;2023-04-08T18:21:19;101024.70;;;11.31;100.00
61697;BME280;47610;52.252;20.922;2023-04-08T18:26:23;101032.54;;;11.11;100.00
61697;BME280;47610;52.252;20.922;2023-04-08T18:31:26;101034.83;;;10.88;100.00
61697;BME280;47610;52.252;20.922;2023-04-08T18:36:29;101042.13;;;10.66;100.00
61697;BME280;47610;52.252;20.922;2023-04-08T18:41:32;101049.45;;;10.47;100.00
61697;BME280;47610;52.252;20.922;2023-04-08T18:46:36;101055.07;;;10.25;100.00
61697;BME280;47610;52.252;20.922;2023-04-08T18:51:39;101053.48;;;10.07;100.00
61697;BME280;47610;52.252;20.922;2023-04-08T18:56:42;101050.48;;;9.93;100.00
61697;BME280;47610;52.252;20.922;2023-04-08T19:01:45;101049.14;;;9.83;100.00
61697;BME280;47610;52.252;20.922;2023-04-08T19:06:48;101050.39;;;9.74;100.00
61697;BME280;47610;52.252;20.922;2023-04-08T19:11:51;101050.13;;;9.67;100.00
61697;BME280;47610;52.252;20.922;2023-04-08T19:16:55;101041.46;;;9.60;100.00
61697;BME280;47610;52.252;20.922;2023-04-08T19:21:58;101038.48;;;9.60;100.00
61697;BME280;47610;52.252;20.922;2023-04-08T19:27:01;101030.00;;;9.59;100.00
61697;BME280;47610;52.252;20.922;2023-04-08T19:32:04;101028.55;;;9.62;100.00
61697;BME280;47610;52.252;20.922;2023-04-08T19:37:07;101028.36;;;9.67;100.00
61697;BME280;47610;52.252;20.922;2023-04-08T19:42:11;101027.19;;;9.70;100.00
61697;BME280;47610;52.252;20.922;2023-04-08T19:47:14;101028.05;;;9.73;100.00
61697;BME280;47610;52.252;20.922;2023-04-08T19:52:17;101029.29;;;9.75;100.00
61697;BME280;47610;52.252;20.922;2023-04-08T19:57:20;101024.66;;;9.78;100.00
61697;BME280;47610;52.252;20.922;2023-04-08T20:02:24;101027.13;;;9.78;100.00
61697;BME280;47610;52.252;20.922;2023-04-08T20:07:27;101023.04;;;9.79;100.00
61697;BME280;47610;52.252;20.922;2023-04-08T20:12:30;101027.16;;;9.82;100.00
61697;BME280;47610;52.252;20.922;2023-04-08T20:17:33;101028.13;;;9.82;100.00
61697;BME280;47610;52.252;20.922;2023-04-08T20:22:36;101028.23;;;9.83;100.00
61697;BME280;47610;52.252;20.922;2023-04-08T20:27:40;101031.04;;;9.83;100.00
61697;BME280;47610;52.252;20.922;2023-04-08T20:32:43;101028.38;;;9.81;100.00
61697;BME280;47610;52.252;20.922;2023-04-08T20:37:46;101032.86;;;9.79;100.00
61697;BME280;47610;52.252;20.922;2023-04-08T20:42:49;101031.17;;;9.76;100.00
61697;BME280;47610;52.252;20.922;2023-04-08T20:47:52;101031.03;;;9.73;100.00
61697;BME280;47610;52.252;20.922;2023-04-08T20:52:55;101034.70;;;9.72;100.00
61697;BME280;47610;52.252;20.922;2023-04-08T20:57:59;101031.06;;;9.72;100.00
61697;BME280;47610;52.252;20.922;2023-04-08T21:03:02;101036.02;;;9.70;100.00
61697;BME280;47610;52.252;20.922;2023-04-08T21:08:05;101035.66;;;9.67;100.00
61697;BME280;47610;52.252;20.922;2023-04-08T21:13:08;101033.89;;;9.62;100.00
61697;BME280;47610;52.252;20.922;2023-04-08T21:18:11;101031.65;;;9.55;100.00
61697;BME280;47610;52.252;20.922;2023-04-08T21:23:15;101029.89;;;9.47;100.00
61697;BME280;47610;52.252;20.922;2023-04-08T21:28:18;101025.92;;;9.42;100.00
61697;BME280;47610;52.252;20.922;2023-04-08T21:33:21;101031.58;;;9.38;100.00
61697;BME280;47610;52.252;20.922;2023-04-08T21:38:24;101022.55;;;9.35;100.00
61697;BME280;47610;52.252;20.922;2023-04-08T21:43:27;101015.48;;;9.32;100.00
61697;BME280;47610;52.252;20.922;2023-04-08T21:48:31;101013.27;;;9.30;100.00
61697;BME280;47610;52.252;20.922;2023-04-08T21:53:34;101006.48;;;9.29;100.00
61697;BME280;47610;52.252;20.922;2023-04-08T21:58:37;101005.00;;;9.29;100.00
61697;BME280;47610;52.252;20.922;2023-04-08T22:03:40;101007.65;;;9.29;100.00
61697;BME280;47610;52.252;20.922;2023-04-08T22:08:43;101005.80;;;9.28;100.00
61697;BME280;47610;52.252;20.922;2023-04-08T22:13:47;101000.98;;;9.25;100.00
61697;BME280;47610;52.252;20.922;2023-04-08T22:18:50;100997.77;;;9.23;100.00
61697;BME280;47610;52.252;20.922;2023-04-08T22:23:53;100991.70;;;9.25;100.00
61697;BME280;47610;52.252;20.922;2023-04-08T22:28:56;100997.27;;;9.26;100.00
61697;BME280;47610;52.252;20.922;2023-04-08T22:33:59;100990.45;;;9.26;100.00
61697;BME280;47610;52.252;20.922;2023-04-08T22:39:03;100985.34;;;9.25;100.00
61697;BME280;47610;52.252;20.922;2023-04-08T22:44:06;100983.61;;;9.24;100.00
61697;BME280;47610;52.252;20.922;2023-04-08T22:49:09;100984.10;;;9.24;100.00
61697;BME280;47610;52.252;20.922;2023-04-08T22:54:12;100986.89;;;9.23;100.00
61697;BME280;47610;52.252;20.922;2023-04-08T22:59:15;100985.88;;;9.22;100.00
61697;BME280;47610;52.252;20.922;2023-04-08T23:04:19;100984.73;;;9.19;100.00
61697;BME280;47610;52.252;20.922;2023-04-08T23:09:22;100982.02;;;9.16;100.00
61697;BME280;47610;52.252;20.922;2023-04-08T23:14:25;100974.14;;;9.12;100.00
61697;BME280;47610;52.252;20.922;2023-04-08T23:19:28;100975.13;;;9.08;100.00
61697;BME280;47610;52.252;20.922;2023-04-08T23:24:33;100973.56;;;9.06;100.00
61697;BME280;47610;52.252;20.922;2023-04-08T23:29:36;100972.65;;;9.04;100.00
61697;BME280;47610;52.252;20.922;2023-04-08T23:34:39;100970.48;;;9.03;100.00
61697;BME280;47610;52.252;20.922;2023-04-08T23:39:43;100965.58;;;9.01;100.00
61697;BME280;47610;52.252;20.922;2023-04-08T23:44:46;100958.92;;;9.01;100.00
61697;BME280;47610;52.252;20.922;2023-04-08T23:49:50;100951.47;;;9.02;100.00
61697;BME280;47610;52.252;20.922;2023-04-08T23:54:53;100945.63;;;9.01;100.00
61697;BME280;47610;52.252;20.922;2023-04-08T23:59:57;100941.34;;;9.00;100.00
